createdAt,value
2022-09-11T00:00:54.835Z,14.54
2022-09-11T00:01:54.845Z,14.47
2022-09-11T00:02:55.018Z,14.50
2022-09-11T00:03:54.784Z,14.55
2022-09-11T00:04:54.896Z,14.46
2022-09-11T00:05:55.108Z,14.57
2022-09-11T00:06:54.746Z,14.43
2022-09-11T00:07:54.739Z,14.39
2022-09-11T00:08:54.721Z,14.43
2022-09-11T00:09:54.715Z,14.37
2022-09-11T00:10:54.721Z,14.46
2022-09-11T00:11:54.690Z,14.33
2022-09-11T00:12:54.685Z,14.29
2022-09-11T00:13:54.664Z,14.28
2022-09-11T00:14:54.678Z,14.33
2022-09-11T00:15:54.673Z,14.24
2022-09-11T00:16:54.634Z,14.21
2022-09-11T00:17:54.621Z,14.28
2022-09-11T00:18:54.610Z,14.27
2022-09-11T00:19:54.619Z,14.25
2022-09-11T00:20:54.606Z,14.24
2022-09-11T00:21:54.576Z,14.28
2022-09-11T00:22:54.563Z,14.25
2022-09-11T00:23:54.554Z,14.17
2022-09-11T00:24:54.574Z,14.22
2022-09-11T00:25:54.551Z,14.17
2022-09-11T00:26:54.523Z,14.21
2022-09-11T00:27:54.517Z,14.21
2022-09-11T00:28:54.499Z,14.12
2022-09-11T00:29:54.483Z,14.14
2022-09-11T00:30:54.498Z,14.20
2022-09-11T00:31:54.463Z,14.12
2022-09-11T00:32:54.456Z,14.15
2022-09-11T00:33:54.441Z,14.10
2022-09-11T00:34:54.453Z,14.12
2022-09-11T00:35:54.416Z,14.09
2022-09-11T00:36:54.447Z,14.20
2022-09-11T00:37:54.393Z,14.20
2022-09-11T00:38:54.385Z,14.20
2022-09-11T00:39:54.425Z,14.14
2022-09-11T00:40:54.383Z,14.15
2022-09-11T00:41:54.354Z,14.14
2022-09-11T00:42:54.340Z,14.15
2022-09-11T00:43:54.331Z,14.20
2022-09-11T00:44:54.313Z,14.20
2022-09-11T00:45:54.358Z,14.10
2022-09-11T00:46:54.293Z,14.21
2022-09-11T00:47:54.281Z,14.17
2022-09-11T00:48:54.293Z,14.21
2022-09-11T00:49:54.262Z,14.15
2022-09-11T00:50:54.251Z,14.21
2022-09-11T00:51:54.235Z,14.25
2022-09-11T00:52:54.240Z,14.24
2022-09-11T00:53:54.232Z,14.25
2022-09-11T00:54:54.201Z,14.28
2022-09-11T00:55:54.189Z,14.20
2022-09-11T00:56:54.178Z,14.28
2022-09-11T00:57:54.168Z,14.20
2022-09-11T00:58:54.277Z,14.22
2022-09-11T00:59:54.147Z,14.27
2022-09-11T01:00:54.198Z,14.21
2022-09-11T01:01:54.190Z,14.29
2022-09-11T01:02:54.316Z,14.25
2022-09-11T01:03:54.101Z,14.32
2022-09-11T01:04:54.091Z,14.27
2022-09-11T01:05:54.100Z,14.29
2022-09-11T01:06:54.334Z,14.35
2022-09-11T01:07:54.056Z,14.28
2022-09-11T01:08:54.061Z,14.28
2022-09-11T01:09:54.056Z,14.24
2022-09-11T01:10:54.029Z,14.25
2022-09-11T01:11:54.346Z,14.29
2022-09-11T01:12:54.323Z,14.25
2022-09-11T01:13:53.986Z,14.32
2022-09-11T01:14:53.973Z,14.22
2022-09-11T01:15:54.029Z,14.29
2022-09-11T01:16:53.972Z,14.22
2022-09-11T01:17:53.945Z,14.21
2022-09-11T01:18:53.935Z,14.29
2022-09-11T01:19:53.950Z,14.28
2022-09-11T01:20:53.915Z,14.25
2022-09-11T01:21:53.924Z,14.24
2022-09-11T01:22:53.927Z,14.28
2022-09-11T01:23:53.877Z,14.24
2022-09-11T01:24:53.925Z,14.27
2022-09-11T01:25:53.884Z,14.20
2022-09-11T01:26:53.859Z,14.22
2022-09-11T01:27:53.849Z,14.21
2022-09-11T01:28:53.816Z,14.28
2022-09-11T01:29:53.807Z,14.21
2022-09-11T01:30:53.790Z,14.22
2022-09-11T01:31:53.795Z,14.25
2022-09-11T01:32:53.791Z,14.29
2022-09-11T01:33:53.782Z,14.21
2022-09-11T01:34:53.747Z,14.28
2022-09-11T01:35:53.742Z,14.28
2022-09-11T01:36:53.732Z,14.25
2022-09-11T01:37:53.736Z,14.29
2022-09-11T01:38:53.701Z,14.24
2022-09-11T01:39:53.714Z,14.27
2022-09-11T01:40:53.700Z,14.35
2022-09-11T01:41:53.667Z,14.28
2022-09-11T01:42:53.678Z,14.25
2022-09-11T01:43:53.646Z,14.24
2022-09-11T01:44:53.637Z,14.32
2022-09-11T01:45:53.629Z,14.18
2022-09-11T01:46:53.636Z,14.21
2022-09-11T01:47:53.602Z,14.15
2022-09-11T01:48:53.724Z,14.21
2022-09-11T01:49:53.576Z,14.15
2022-09-11T01:50:53.562Z,14.15
2022-09-11T01:51:53.784Z,14.20
2022-09-11T01:52:53.564Z,14.17
2022-09-11T01:53:53.537Z,14.15
2022-09-11T01:54:53.521Z,14.15
2022-09-11T01:55:53.510Z,14.14
2022-09-11T01:56:53.512Z,14.20
2022-09-11T01:57:53.509Z,14.12
2022-09-11T01:58:53.499Z,14.09
2022-09-11T01:59:53.464Z,14.22
2022-09-11T02:00:53.570Z,14.15
2022-09-11T02:01:53.483Z,14.12
2022-09-11T02:02:53.455Z,14.09
2022-09-11T02:03:53.417Z,14.17
2022-09-11T02:04:53.408Z,14.17
2022-09-11T02:05:53.397Z,14.09
2022-09-11T02:06:53.382Z,14.15
2022-09-11T02:07:53.375Z,14.18
2022-09-11T02:08:53.403Z,14.20
2022-09-11T02:09:53.352Z,14.07
2022-09-11T02:10:53.335Z,14.14
2022-09-11T02:11:53.358Z,14.10
2022-09-11T02:12:53.330Z,14.15
2022-09-11T02:13:53.364Z,14.02
2022-09-11T02:14:53.327Z,14.07
2022-09-11T02:15:53.286Z,14.07
2022-09-11T02:16:53.268Z,14.02
2022-09-11T02:17:53.281Z,14.00
2022-09-11T02:18:53.250Z,14.09
2022-09-11T02:19:53.234Z,14.10
2022-09-11T02:20:53.226Z,14.09
2022-09-11T02:21:53.237Z,14.10
2022-09-11T02:22:53.229Z,14.09
2022-09-11T02:23:53.196Z,14.15
2022-09-11T02:24:53.180Z,14.18
2022-09-11T02:25:53.170Z,14.21
2022-09-11T02:26:53.189Z,14.22
2022-09-11T02:27:53.150Z,14.20
2022-09-11T02:28:53.155Z,14.20
2022-09-11T02:29:53.125Z,14.24
2022-09-11T02:30:53.112Z,14.27
2022-09-11T02:31:53.123Z,14.21
2022-09-11T02:32:53.090Z,14.22
2022-09-11T02:33:53.079Z,14.28
2022-09-11T02:34:53.098Z,14.21
2022-09-11T02:35:53.054Z,14.32
2022-09-11T02:36:53.050Z,14.28
2022-09-11T02:37:53.032Z,14.24
2022-09-11T02:38:53.022Z,14.27
2022-09-11T02:39:53.076Z,14.32
2022-09-11T02:40:53.050Z,14.40
2022-09-11T02:41:52.987Z,14.36
2022-09-11T02:42:52.997Z,14.33
2022-09-11T02:43:52.964Z,14.40
2022-09-11T02:44:52.993Z,14.36
2022-09-11T02:45:52.961Z,14.29
2022-09-11T02:46:52.943Z,14.36
2022-09-11T02:47:52.924Z,14.37
2022-09-11T02:48:52.907Z,14.35
2022-09-11T02:49:52.960Z,14.40
2022-09-11T02:50:52.883Z,14.45
2022-09-11T02:51:52.877Z,14.43
2022-09-11T02:52:52.873Z,14.50
2022-09-11T02:53:52.853Z,14.43
2022-09-11T02:54:52.863Z,14.45
2022-09-11T02:55:52.848Z,14.50
2022-09-11T02:56:52.817Z,14.50
2022-09-11T02:57:52.810Z,14.46
2022-09-11T02:58:52.795Z,14.54
2022-09-11T02:59:52.785Z,14.52
2022-09-11T03:00:52.968Z,14.55
2022-09-11T03:01:52.908Z,14.47
2022-09-11T03:02:52.748Z,14.54
2022-09-11T03:03:52.738Z,14.50
2022-09-11T03:04:52.723Z,14.47
2022-09-11T03:05:52.737Z,14.51
2022-09-11T03:06:52.709Z,14.50
2022-09-11T03:07:52.692Z,14.54
2022-09-11T03:08:52.684Z,14.52
2022-09-11T03:09:52.672Z,14.50
2022-09-11T03:10:53.008Z,14.57
2022-09-11T03:11:53.053Z,14.55
2022-09-11T03:12:52.634Z,14.55
2022-09-11T03:13:52.628Z,14.57
2022-09-11T03:14:52.802Z,14.57
2022-09-11T03:15:52.629Z,14.50
2022-09-11T03:16:52.607Z,14.50
2022-09-11T03:17:52.583Z,14.62
2022-09-11T03:18:52.566Z,14.62
2022-09-11T03:19:52.555Z,14.60
2022-09-11T03:20:52.562Z,14.64
2022-09-11T03:21:52.536Z,14.60
2022-09-11T03:22:52.522Z,14.58
2022-09-11T03:23:52.517Z,14.61
2022-09-11T03:24:52.498Z,14.62
2022-09-11T03:25:52.518Z,14.61
2022-09-11T03:26:52.476Z,14.61
2022-09-11T03:27:52.467Z,14.65
2022-09-11T03:28:52.453Z,14.58
2022-09-11T03:29:52.464Z,14.58
2022-09-11T03:30:52.455Z,14.61
2022-09-11T03:31:52.483Z,14.64
2022-09-11T03:32:52.424Z,14.65
2022-09-11T03:33:52.397Z,14.65
2022-09-11T03:34:52.382Z,14.68
2022-09-11T03:35:52.374Z,14.58
2022-09-11T03:36:52.461Z,14.64
2022-09-11T03:37:52.355Z,14.65
2022-09-11T03:38:52.340Z,14.70
2022-09-11T03:39:52.398Z,14.75
2022-09-11T03:40:52.317Z,14.72
2022-09-11T03:41:52.329Z,14.86
2022-09-11T03:42:52.296Z,14.78
2022-09-11T03:43:52.284Z,14.80
2022-09-11T03:44:52.269Z,14.84
2022-09-11T03:45:52.385Z,14.72
2022-09-11T03:46:52.246Z,14.69
2022-09-11T03:47:52.260Z,14.70
2022-09-11T03:48:52.301Z,14.68
2022-09-11T03:49:52.217Z,14.62
2022-09-11T03:50:52.206Z,14.65
2022-09-11T03:51:52.191Z,14.61
2022-09-11T03:52:52.200Z,14.68
2022-09-11T03:53:52.173Z,14.64
2022-09-11T03:54:52.162Z,14.73
2022-09-11T03:55:52.190Z,14.62
2022-09-11T03:56:52.133Z,14.62
2022-09-11T03:57:52.146Z,14.69
2022-09-11T03:58:52.113Z,14.69
2022-09-11T03:59:52.102Z,14.77
2022-09-11T04:00:52.137Z,14.73
2022-09-11T04:01:52.110Z,14.72
2022-09-11T04:02:52.095Z,14.75
2022-09-11T04:03:52.058Z,14.70
2022-09-11T04:04:52.058Z,14.62
2022-09-11T04:05:52.058Z,14.62
2022-09-11T04:06:52.021Z,14.68
2022-09-11T04:07:52.012Z,14.65
2022-09-11T04:08:51.999Z,14.77
2022-09-11T04:09:51.994Z,14.72
2022-09-11T04:10:51.995Z,14.73
2022-09-11T04:11:51.999Z,14.69
2022-09-11T04:12:51.951Z,14.69
2022-09-11T04:13:51.980Z,14.72
2022-09-11T04:14:51.948Z,14.80
2022-09-11T04:15:51.956Z,14.72
2022-09-11T04:16:51.929Z,14.72
2022-09-11T04:17:51.898Z,14.72
2022-09-11T04:18:51.886Z,14.73
2022-09-11T04:19:51.877Z,14.70
2022-09-11T04:20:51.880Z,14.75
2022-09-11T04:21:51.874Z,14.73
2022-09-11T04:22:51.840Z,14.86
2022-09-11T04:23:51.832Z,14.81
2022-09-11T04:24:51.822Z,14.81
2022-09-11T04:25:51.831Z,14.72
2022-09-11T04:26:51.819Z,14.75
2022-09-11T04:27:52.105Z,14.72
2022-09-11T04:28:51.774Z,14.72
2022-09-11T04:29:51.779Z,14.70
2022-09-11T04:30:51.752Z,14.77
2022-09-11T04:31:51.815Z,14.77
2022-09-11T04:32:51.782Z,14.69
2022-09-11T04:33:54.769Z,14.68
2022-09-11T04:34:52.723Z,14.60
2022-09-11T04:35:51.692Z,14.61
2022-09-11T04:36:51.703Z,14.62
2022-09-11T04:37:51.670Z,14.47
2022-09-11T04:38:51.694Z,14.52
2022-09-11T04:39:51.722Z,14.57
2022-09-11T04:40:51.636Z,14.57
2022-09-11T04:41:51.626Z,14.40
2022-09-11T04:42:51.615Z,14.47
2022-09-11T04:43:51.604Z,14.45
2022-09-11T04:44:51.595Z,14.43
2022-09-11T04:45:51.688Z,14.40
2022-09-11T04:46:51.587Z,14.37
2022-09-11T04:47:51.556Z,14.35
2022-09-11T04:48:51.552Z,14.27
2022-09-11T04:49:51.533Z,14.32
2022-09-11T04:50:51.525Z,14.36
2022-09-11T04:51:51.532Z,14.32
2022-09-11T04:52:51.525Z,14.28
2022-09-11T04:53:51.488Z,14.39
2022-09-11T04:54:51.499Z,14.25
2022-09-11T04:55:51.464Z,14.29
2022-09-11T04:56:51.478Z,14.35
2022-09-11T04:57:51.442Z,14.37
2022-09-11T04:58:51.437Z,14.32
2022-09-11T04:59:51.418Z,14.37
2022-09-11T05:00:51.502Z,14.32
2022-09-11T05:01:51.468Z,14.46
2022-09-11T05:02:51.396Z,14.40
2022-09-11T05:03:51.375Z,14.46
2022-09-11T05:04:51.362Z,14.45
2022-09-11T05:05:51.353Z,14.57
2022-09-11T05:06:51.374Z,14.50
2022-09-11T05:07:51.336Z,14.46
2022-09-11T05:08:51.338Z,14.58
2022-09-11T05:09:51.309Z,14.58
2022-09-11T05:10:51.297Z,14.61
2022-09-11T05:11:51.304Z,14.60
2022-09-11T05:12:51.272Z,14.60
2022-09-11T05:13:51.259Z,14.61
2022-09-11T05:14:51.251Z,14.62
2022-09-11T05:15:51.240Z,14.65
2022-09-11T05:16:51.230Z,14.60
2022-09-11T05:17:51.233Z,14.73
2022-09-11T05:18:51.204Z,14.75
2022-09-11T05:19:51.192Z,14.78
2022-09-11T05:20:51.183Z,14.73
2022-09-11T05:21:51.169Z,14.77
2022-09-11T05:22:51.287Z,14.72
2022-09-11T05:23:51.147Z,14.70
2022-09-11T05:24:51.154Z,14.78
2022-09-11T05:25:51.122Z,14.73
2022-09-11T05:26:51.112Z,14.75
2022-09-11T05:27:51.103Z,14.75
2022-09-11T05:28:51.298Z,14.69
2022-09-11T05:29:51.081Z,14.73
2022-09-11T05:30:51.067Z,14.88
2022-09-11T05:31:51.089Z,14.80
2022-09-11T05:32:51.058Z,14.83
2022-09-11T05:33:51.311Z,14.84
2022-09-11T05:34:51.025Z,14.88
2022-09-11T05:35:51.012Z,14.89
2022-09-11T05:36:51.001Z,14.89
2022-09-11T05:37:50.990Z,14.95
2022-09-11T05:38:50.980Z,14.94
2022-09-11T05:39:51.022Z,14.98
2022-09-11T05:40:50.974Z,14.92
2022-09-11T05:41:50.941Z,14.95
2022-09-11T05:42:50.933Z,14.94
2022-09-11T05:43:50.917Z,14.89
2022-09-11T05:44:52.576Z,14.86
2022-09-11T05:45:50.918Z,14.88
2022-09-11T05:46:50.890Z,14.78
2022-09-11T05:47:54.208Z,14.89
2022-09-11T05:48:51.864Z,14.84
2022-09-11T05:49:50.875Z,14.91
2022-09-11T05:50:50.842Z,14.89
2022-09-11T05:51:50.829Z,14.98
2022-09-11T05:52:50.838Z,14.92
2022-09-11T05:53:50.804Z,14.89
2022-09-11T05:54:50.822Z,14.94
2022-09-11T05:55:50.782Z,14.88
2022-09-11T05:56:50.817Z,14.89
2022-09-11T05:57:50.766Z,14.98
2022-09-11T05:58:50.750Z,14.92
2022-09-11T05:59:50.738Z,14.95
2022-09-11T06:00:50.849Z,14.98
2022-09-11T06:01:50.785Z,14.89
2022-09-11T06:02:50.707Z,14.88
2022-09-11T06:03:50.692Z,14.98
2022-09-11T06:04:50.684Z,15.06
2022-09-11T06:05:50.668Z,14.98
2022-09-11T06:06:50.684Z,15.03
2022-09-11T06:07:50.647Z,15.07
2022-09-11T06:08:50.636Z,15.02
2022-09-11T06:09:50.628Z,15.06
2022-09-11T06:10:50.637Z,15.06
2022-09-11T06:11:50.619Z,15.02
2022-09-11T06:12:50.611Z,15.07
2022-09-11T06:13:50.600Z,15.10
2022-09-11T06:14:50.569Z,15.07
2022-09-11T06:15:50.560Z,15.03
2022-09-11T06:16:50.640Z,15.06
2022-09-11T06:17:50.535Z,15.09
2022-09-11T06:18:52.813Z,15.03
2022-09-11T06:19:50.512Z,15.11
2022-09-11T06:20:50.500Z,15.03
2022-09-11T06:21:50.489Z,15.11
2022-09-11T06:22:50.498Z,15.13
2022-09-11T06:23:50.465Z,15.16
2022-09-11T06:24:50.458Z,15.14
2022-09-11T06:25:50.446Z,15.09
2022-09-11T06:26:50.434Z,15.21
2022-09-11T06:27:50.442Z,15.09
2022-09-11T06:28:50.430Z,15.27
2022-09-11T06:29:50.405Z,15.20
2022-09-11T06:30:50.460Z,15.23
2022-09-11T06:31:50.404Z,15.27
2022-09-11T06:32:50.422Z,15.34
2022-09-11T06:33:50.354Z,15.32
2022-09-11T06:34:50.342Z,15.32
2022-09-11T06:35:50.333Z,15.38
2022-09-11T06:36:52.407Z,15.34
2022-09-11T06:37:50.308Z,15.35
2022-09-11T06:38:50.561Z,15.36
2022-09-11T06:39:50.323Z,15.35
2022-09-11T06:40:50.286Z,15.36
2022-09-11T06:41:50.267Z,15.35
2022-09-11T06:42:50.262Z,15.35
2022-09-11T06:43:50.239Z,15.51
2022-09-11T06:44:50.940Z,15.47
2022-09-11T06:45:50.260Z,15.41
2022-09-11T06:46:50.214Z,15.41
2022-09-11T06:47:50.203Z,15.44
2022-09-11T06:48:50.192Z,15.49
2022-09-11T06:49:50.192Z,15.49
2022-09-11T06:50:50.164Z,15.47
2022-09-11T06:51:50.149Z,15.46
2022-09-11T06:52:50.140Z,15.47
2022-09-11T06:53:50.151Z,15.57
2022-09-11T06:54:50.116Z,15.49
2022-09-11T06:55:50.104Z,15.59
2022-09-11T06:56:50.097Z,15.59
2022-09-11T06:57:50.081Z,15.47
2022-09-11T06:58:50.121Z,15.57
2022-09-11T06:59:50.061Z,15.53
2022-09-11T07:00:50.149Z,15.57
2022-09-11T07:01:50.158Z,15.57
2022-09-11T07:02:50.026Z,15.54
2022-09-11T07:03:50.017Z,15.56
2022-09-11T07:04:50.029Z,15.56
2022-09-11T07:05:49.993Z,15.54
2022-09-11T07:06:49.986Z,15.65
2022-09-11T07:07:49.972Z,15.64
2022-09-11T07:08:49.961Z,15.67
2022-09-11T07:09:49.966Z,15.65
2022-09-11T07:10:49.938Z,15.65
2022-09-11T07:11:49.923Z,15.69
2022-09-11T07:12:49.916Z,15.68
2022-09-11T07:13:49.900Z,15.71
2022-09-11T07:14:49.912Z,15.72
2022-09-11T07:15:49.890Z,15.78
2022-09-11T07:16:49.932Z,15.78
2022-09-11T07:17:49.969Z,15.74
2022-09-11T07:18:49.859Z,15.71
2022-09-11T07:19:49.843Z,15.74
2022-09-11T07:20:49.829Z,15.78
2022-09-11T07:21:49.810Z,15.75
2022-09-11T07:22:49.923Z,15.89
2022-09-11T07:23:49.795Z,15.86
2022-09-11T07:24:49.780Z,15.82
2022-09-11T07:25:49.770Z,15.83
2022-09-11T07:26:49.924Z,15.93
2022-09-11T07:27:49.747Z,16.02
2022-09-11T07:28:49.736Z,16.04
2022-09-11T07:29:49.722Z,16.15
2022-09-11T07:30:49.753Z,16.17
2022-09-11T07:31:49.719Z,16.23
2022-09-11T07:32:49.707Z,16.28
2022-09-11T07:33:49.675Z,16.28
2022-09-11T07:34:49.665Z,16.38
2022-09-11T07:35:49.653Z,16.43
2022-09-11T07:36:50.023Z,16.43
2022-09-11T07:37:50.954Z,16.38
2022-09-11T07:38:49.623Z,16.50
2022-09-11T07:39:49.659Z,16.38
2022-09-11T07:40:49.601Z,16.46
2022-09-11T07:41:49.586Z,16.50
2022-09-11T07:42:49.581Z,16.46
2022-09-11T07:43:49.593Z,16.43
2022-09-11T07:44:49.556Z,16.38
2022-09-11T07:45:49.561Z,16.38
2022-09-11T07:46:49.539Z,16.43
2022-09-11T07:47:49.519Z,16.45
2022-09-11T07:48:49.544Z,16.41
2022-09-11T07:49:49.495Z,16.45
2022-09-11T07:50:49.485Z,16.39
2022-09-11T07:51:49.475Z,16.46
2022-09-11T07:52:49.463Z,16.45
2022-09-11T07:53:49.472Z,16.58
2022-09-11T07:54:49.441Z,16.61
2022-09-11T07:55:49.453Z,16.46
2022-09-11T07:56:49.421Z,16.49
2022-09-11T07:57:49.426Z,16.49
2022-09-11T07:58:49.395Z,16.45
2022-09-11T07:59:49.383Z,16.43
2022-09-11T08:00:49.454Z,16.45
2022-09-11T08:01:49.360Z,16.46
2022-09-11T08:02:49.353Z,16.48
2022-09-11T08:03:49.343Z,16.50
2022-09-11T08:04:49.343Z,16.58
2022-09-11T08:05:49.337Z,16.53
2022-09-11T08:06:49.307Z,16.58
2022-09-11T08:07:49.290Z,16.63
2022-09-11T08:08:49.870Z,16.60
2022-09-11T08:09:59.830Z,16.64
2022-09-11T08:10:50.255Z,16.61
2022-09-11T08:11:49.265Z,16.71
2022-09-11T08:12:49.234Z,16.76
2022-09-11T08:13:49.224Z,16.85
2022-09-11T08:14:49.231Z,16.89
2022-09-11T08:15:49.199Z,16.79
2022-09-11T08:16:49.272Z,16.82
2022-09-11T08:17:49.177Z,16.85
2022-09-11T08:18:49.189Z,16.91
2022-09-11T08:19:49.153Z,16.76
2022-09-11T08:20:49.184Z,16.85
2022-09-11T08:21:49.129Z,16.86
2022-09-11T08:22:49.120Z,16.81
2022-09-11T08:23:49.107Z,16.91
2022-09-11T08:24:49.099Z,16.96
2022-09-11T08:25:49.107Z,16.89
2022-09-11T08:26:49.399Z,16.96
2022-09-11T08:27:49.071Z,16.91
2022-09-11T08:28:49.054Z,16.93
2022-09-11T08:29:49.045Z,16.91
2022-09-11T08:30:49.122Z,16.89
2022-09-11T08:31:49.039Z,16.86
2022-09-11T08:32:49.006Z,16.86
2022-09-11T08:33:48.997Z,16.85
2022-09-11T08:34:48.984Z,16.85
2022-09-11T08:35:48.973Z,16.85
2022-09-11T08:36:49.005Z,16.76
2022-09-11T08:37:54.138Z,16.79
2022-09-11T08:38:49.942Z,16.81
2022-09-11T08:39:48.977Z,16.81
2022-09-11T08:40:48.942Z,16.70
2022-09-11T08:41:48.943Z,16.73
2022-09-11T08:42:48.899Z,16.78
2022-09-11T08:43:48.885Z,16.76
2022-09-11T08:44:48.879Z,16.67
2022-09-11T08:45:48.904Z,16.61
2022-09-11T08:46:48.876Z,16.63
2022-09-11T08:47:48.844Z,16.70
2022-09-11T08:48:48.826Z,16.71
2022-09-11T08:49:48.812Z,16.76
2022-09-11T08:50:48.802Z,16.75
2022-09-11T08:51:48.796Z,16.79
2022-09-11T08:52:48.839Z,16.83
2022-09-11T08:53:48.770Z,16.76
2022-09-11T08:54:48.755Z,16.76
2022-09-11T08:55:48.755Z,16.76
2022-09-11T08:56:48.755Z,16.86
2022-09-11T08:57:48.728Z,16.86
2022-09-11T08:58:48.714Z,16.96
2022-09-11T08:59:48.705Z,16.83
2022-09-11T09:00:48.689Z,16.93
2022-09-11T09:01:48.742Z,16.98
2022-09-11T09:02:48.667Z,17.07
2022-09-11T09:03:48.656Z,17.08
2022-09-11T09:04:48.641Z,17.21
2022-09-11T09:05:48.632Z,17.25
2022-09-11T09:06:48.684Z,17.26
2022-09-11T09:07:48.643Z,17.22
2022-09-11T09:08:48.617Z,17.22
2022-09-11T09:09:48.588Z,17.28
2022-09-11T09:10:48.573Z,17.33
2022-09-11T09:11:48.567Z,17.46
2022-09-11T09:12:48.552Z,17.37
2022-09-11T09:13:48.776Z,17.40
2022-09-11T09:14:48.543Z,17.41
2022-09-11T09:15:48.567Z,17.43
2022-09-11T09:16:48.528Z,17.43
2022-09-11T09:17:48.520Z,17.49
2022-09-11T09:18:48.484Z,17.38
2022-09-11T09:19:48.474Z,17.51
2022-09-11T09:20:48.462Z,17.62
2022-09-11T09:21:48.543Z,17.52
2022-09-11T09:22:48.460Z,17.49
2022-09-11T09:23:48.428Z,17.63
2022-09-11T09:24:48.431Z,17.59
2022-09-11T09:25:48.410Z,17.48
2022-09-11T09:26:48.418Z,17.46
2022-09-11T09:27:48.410Z,17.49
2022-09-11T09:28:48.375Z,17.48
2022-09-11T09:29:48.382Z,17.41
2022-09-11T09:30:48.429Z,17.64
2022-09-11T09:31:48.338Z,17.52
2022-09-11T09:32:48.326Z,17.55
2022-09-11T09:33:48.323Z,17.54
2022-09-11T09:34:48.323Z,17.52
2022-09-11T09:35:48.295Z,17.62
2022-09-11T09:36:48.282Z,17.62
2022-09-11T09:37:48.304Z,17.62
2022-09-11T09:38:48.256Z,17.63
2022-09-11T09:39:48.318Z,17.58
2022-09-11T09:40:48.253Z,17.58
2022-09-11T09:41:48.224Z,17.63
2022-09-11T09:42:48.233Z,17.64
2022-09-11T09:43:48.221Z,17.63
2022-09-11T09:44:48.188Z,17.55
2022-09-11T09:45:48.210Z,17.58
2022-09-11T09:46:51.012Z,17.58
2022-09-11T09:47:48.208Z,17.56
2022-09-11T09:48:48.165Z,17.55
2022-09-11T09:49:48.135Z,17.51
2022-09-11T09:50:48.120Z,17.44
2022-09-11T09:51:48.112Z,17.51
2022-09-11T09:52:48.118Z,17.56
2022-09-11T09:53:48.088Z,17.58
2022-09-11T09:54:48.078Z,17.46
2022-09-11T09:55:48.071Z,17.52
2022-09-11T09:56:48.072Z,17.46
2022-09-11T09:57:48.072Z,17.46
2022-09-11T09:58:48.036Z,17.63
2022-09-11T09:59:48.021Z,17.49
2022-09-11T10:00:48.026Z,17.56
2022-09-11T10:01:48.176Z,17.62
2022-09-11T10:02:48.008Z,17.66
2022-09-11T10:03:47.979Z,17.62
2022-09-11T10:04:47.963Z,17.70
2022-09-11T10:05:47.955Z,17.63
2022-09-11T10:06:47.961Z,17.72
2022-09-11T10:07:47.957Z,17.71
2022-09-11T10:08:47.921Z,17.79
2022-09-11T10:09:47.910Z,17.86
2022-09-11T10:10:47.896Z,17.81
2022-09-11T10:11:47.904Z,17.92
2022-09-11T10:12:47.890Z,17.75
2022-09-11T10:13:47.886Z,17.58
2022-09-11T10:14:51.488Z,17.52
2022-09-11T10:15:47.861Z,17.46
2022-09-11T10:16:47.851Z,17.26
2022-09-11T10:17:47.841Z,17.16
2022-09-11T10:18:47.827Z,17.08
2022-09-11T10:19:47.797Z,16.88
2022-09-11T10:20:47.782Z,16.85
2022-09-11T10:21:47.774Z,16.83
2022-09-11T10:22:47.758Z,16.82
2022-09-11T10:23:47.772Z,16.79
2022-09-11T10:24:47.743Z,16.76
2022-09-11T10:25:47.728Z,16.73
2022-09-11T10:26:47.738Z,16.68
2022-09-11T10:27:47.707Z,16.63
2022-09-11T10:28:47.728Z,16.49
2022-09-11T10:29:47.681Z,16.63
2022-09-11T10:30:47.780Z,16.57
2022-09-11T10:31:47.657Z,16.52
2022-09-11T10:32:47.647Z,16.48
2022-09-11T10:33:47.634Z,16.46
2022-09-11T10:34:47.623Z,16.46
2022-09-11T10:35:47.615Z,16.46
2022-09-11T10:36:47.623Z,16.49
2022-09-11T10:37:47.610Z,16.49
2022-09-11T10:38:47.837Z,16.56
2022-09-11T10:39:47.654Z,16.68
2022-09-11T10:40:47.557Z,16.58
2022-09-11T10:41:47.564Z,16.58
2022-09-11T10:42:47.555Z,16.63
2022-09-11T10:43:47.521Z,16.61
2022-09-11T10:44:47.525Z,16.67
2022-09-11T10:45:47.528Z,16.76
2022-09-11T10:46:47.489Z,16.83
2022-09-11T10:47:47.498Z,16.89
2022-09-11T10:48:47.482Z,16.94
2022-09-11T10:49:47.456Z,16.89
2022-09-11T10:50:47.443Z,16.97
2022-09-11T10:51:47.767Z,17.07
2022-09-11T10:52:47.423Z,17.15
2022-09-11T10:53:47.534Z,17.31
2022-09-11T10:54:47.426Z,17.38
2022-09-11T10:55:47.391Z,17.71
2022-09-11T10:56:47.374Z,17.97
2022-09-11T10:57:47.384Z,17.96
2022-09-11T10:58:47.351Z,18.26
2022-09-11T10:59:47.347Z,18.66
2022-09-11T11:00:47.364Z,18.88
2022-09-11T11:01:47.430Z,19.14
2022-09-11T11:02:47.308Z,19.36
2022-09-11T11:03:47.296Z,19.66
2022-09-11T11:04:47.302Z,19.59
2022-09-11T11:05:47.295Z,19.76
2022-09-11T11:06:47.278Z,19.91
2022-09-11T11:07:47.252Z,19.55
2022-09-11T11:08:47.238Z,19.26
2022-09-11T11:09:47.252Z,19.08
2022-09-11T11:10:47.216Z,18.91
2022-09-11T11:11:47.247Z,18.63
2022-09-11T11:12:47.195Z,18.44
2022-09-11T11:13:47.203Z,18.17
2022-09-11T11:14:47.171Z,18.07
2022-09-11T11:15:47.225Z,17.87
2022-09-11T11:16:47.168Z,17.87
2022-09-11T11:17:47.141Z,17.86
2022-09-11T11:18:47.128Z,17.84
2022-09-11T11:19:47.136Z,17.77
2022-09-11T11:20:47.103Z,17.71
2022-09-11T11:21:47.116Z,17.63
2022-09-11T11:22:47.082Z,17.49
2022-09-11T11:23:47.070Z,17.51
2022-09-11T11:24:47.080Z,17.41
2022-09-11T11:25:47.052Z,17.30
2022-09-11T11:26:47.058Z,17.25
2022-09-11T11:27:47.026Z,17.23
2022-09-11T11:28:47.013Z,17.19
2022-09-11T11:29:47.004Z,17.21
2022-09-11T11:30:47.058Z,17.21
2022-09-11T11:31:47.002Z,17.21
2022-09-11T11:32:46.982Z,17.19
2022-09-11T11:33:46.960Z,17.22
2022-09-11T11:34:46.959Z,17.22
2022-09-11T11:35:46.935Z,17.12
2022-09-11T11:36:46.947Z,17.16
2022-09-11T11:37:46.914Z,17.19
2022-09-11T11:38:46.909Z,17.15
2022-09-11T11:39:46.960Z,17.15
2022-09-11T11:40:46.904Z,17.12
2022-09-11T11:41:46.872Z,17.16
2022-09-11T11:42:46.880Z,17.15
2022-09-11T11:43:46.855Z,17.18
2022-09-11T11:44:46.862Z,17.14
2022-09-11T11:45:46.885Z,17.15
2022-09-11T11:46:46.815Z,17.06
2022-09-11T11:47:46.824Z,17.14
2022-09-11T11:48:46.807Z,17.03
2022-09-11T11:49:46.822Z,17.03
2022-09-11T11:50:46.771Z,17.00
2022-09-11T11:51:46.757Z,17.04
2022-09-11T11:52:46.743Z,17.03
2022-09-11T11:53:46.734Z,16.97
2022-09-11T11:54:46.743Z,17.07
2022-09-11T11:55:46.713Z,17.14
2022-09-11T11:56:46.700Z,17.03
2022-09-11T11:57:46.692Z,16.94
2022-09-11T11:58:46.677Z,16.97
2022-09-11T11:59:46.703Z,16.96
2022-09-11T12:00:46.651Z,16.91
2022-09-11T12:01:46.719Z,16.88
2022-09-11T12:02:46.631Z,16.86
2022-09-11T12:03:46.697Z,16.97
2022-09-11T12:04:46.625Z,17.15
2022-09-11T12:05:46.888Z,17.21
2022-09-11T12:06:46.588Z,17.23
2022-09-11T12:07:46.604Z,17.40
2022-09-11T12:08:46.569Z,17.51
2022-09-11T12:09:46.561Z,17.49
2022-09-11T12:10:46.559Z,17.64
2022-09-11T12:11:46.536Z,17.63
2022-09-11T12:12:46.522Z,17.75
2022-09-11T12:13:46.509Z,17.81
2022-09-11T12:14:46.498Z,17.77
2022-09-11T12:15:46.573Z,17.86
2022-09-11T12:16:46.476Z,17.79
2022-09-11T12:17:46.467Z,17.96
2022-09-11T12:18:46.451Z,17.92
2022-09-11T12:19:46.445Z,17.89
2022-09-11T12:20:46.450Z,17.89
2022-09-11T12:21:46.454Z,17.92
2022-09-11T12:22:46.404Z,17.96
2022-09-11T12:23:46.395Z,18.00
2022-09-11T12:24:46.382Z,18.11
2022-09-11T12:25:46.397Z,18.21
2022-09-11T12:26:46.362Z,18.17
2022-09-11T12:27:46.356Z,18.25
2022-09-11T12:28:46.342Z,18.30
2022-09-11T12:29:46.366Z,18.29
2022-09-11T12:30:46.317Z,18.21
2022-09-11T12:31:46.309Z,18.26
2022-09-11T12:32:46.325Z,18.25
2022-09-11T12:33:46.303Z,18.36
2022-09-11T12:34:46.274Z,18.37
2022-09-11T12:35:46.262Z,18.41
2022-09-11T12:36:46.268Z,18.27
2022-09-11T12:37:46.263Z,18.20
2022-09-11T12:38:46.246Z,18.08
2022-09-11T12:39:46.300Z,18.15
2022-09-11T12:40:46.201Z,18.21
2022-09-11T12:41:46.199Z,17.99
2022-09-11T12:42:46.198Z,17.86
2022-09-11T12:43:46.168Z,17.92
2022-09-11T12:44:46.157Z,17.82
2022-09-11T12:45:46.198Z,17.64
2022-09-11T12:46:46.137Z,17.64
2022-09-11T12:47:46.145Z,17.63
2022-09-11T12:49:00.254Z,17.56
2022-09-11T12:49:47.103Z,17.62
2022-09-11T12:50:46.186Z,17.62
2022-09-11T12:51:46.081Z,17.70
2022-09-11T12:52:46.086Z,17.71